Time;durP1;ratioP1;P1;durP2;ratioP2;P2;SDS_P1;SDS_P2;PMS_P1;PMS_P2;Temp;Humidity;BMP_temperature;BMP_pressure;BME280_temperature;BME280_humidity;BME280_pressure;Samples;Min_cycle;Max_cycle;Signal;HPM_P1;HPM_P2
2021/05/08 00:01:46;;;;;;;2.20;0.80;;;;;;;7.17;89.22;98495.63;5052404;28;45353;-81
2021/05/08 00:04:12;;;;;;;0.93;0.70;;;;;;;7.27;88.56;98483.31;5059175;28;45337;-81
2021/05/08 00:06:37;;;;;;;2.55;1.40;;;;;;;7.14;89.95;98480.88;5059217;28;45586;-81
2021/05/08 00:09:07;;;;;;;5.45;2.80;;;;;;;7.22;88.30;98472.28;5049233;28;45325;-81
2021/05/08 00:11:34;;;;;;;2.72;1.30;;;;;;;7.24;87.28;98470.34;5039233;28;45223;-81
2021/05/08 00:14:01;;;;;;;2.63;1.52;;;;;;;7.21;90.42;98472.41;5051985;28;45298;-82
2021/05/08 00:16:27;;;;;;;2.78;0.90;;;;;;;7.35;88.55;98468.59;5038690;28;45607;-81
2021/05/08 00:18:52;;;;;;;3.13;0.80;;;;;;;7.32;87.92;98466.22;5056710;28;45417;-81
2021/05/08 00:21:18;;;;;;;1.60;0.80;;;;;;;7.24;90.26;98458.94;5054736;28;45465;-81
2021/05/08 00:23:43;;;;;;;2.20;0.63;;;;;;;7.26;89.25;98460.47;5050944;28;45290;-81
2021/05/08 00:26:09;;;;;;;1.63;0.65;;;;;;;7.26;87.38;98463.13;5050971;28;46308;-81
2021/05/08 00:28:34;;;;;;;2.35;0.80;;;;;;;7.27;88.30;98467.44;5041354;28;45377;-81
2021/05/08 00:31:00;;;;;;;1.17;0.60;;;;;;;7.27;88.64;98475.38;5038646;28;45243;-81
2021/05/08 00:33:25;;;;;;;2.60;0.70;;;;;;;7.30;87.82;98482.22;5052615;28;45409;-81
2021/05/08 00:35:51;;;;;;;3.38;0.90;;;;;;;7.22;89.03;98488.16;5045476;28;46564;-81
2021/05/08 00:38:16;;;;;;;2.38;0.80;;;;;;;6.92;87.40;98481.81;5058603;28;45318;-82
2021/05/08 00:40:41;;;;;;;2.92;0.80;;;;;;;7.03;87.53;98480.91;5045037;28;45219;-82
2021/05/08 00:43:07;;;;;;;2.38;0.55;;;;;;;7.22;87.45;98485.50;5046433;28;45453;-81
2021/05/08 00:45:32;;;;;;;1.70;0.70;;;;;;;7.24;87.34;98483.56;5051971;28;45384;-81
2021/05/08 00:48:05;;;;;;;3.28;0.60;;;;;;;7.19;87.19;98499.00;5047637;28;45275;-81
2021/05/08 00:50:32;;;;;;;1.88;0.70;;;;;;;7.20;87.53;98502.50;5044701;28;45386;-81
2021/05/08 00:52:57;;;;;;;3.00;0.90;;;;;;;7.25;87.81;98501.13;5038894;28;45384;-81
2021/05/08 00:55:23;;;;;;;2.83;1.23;;;;;;;7.08;87.63;98491.97;5039578;28;45238;-82
2021/05/08 00:57:48;;;;;;;4.00;1.00;;;;;;;7.17;87.67;98492.16;5038577;28;45509;-82
2021/05/08 01:00:14;;;;;;;3.85;1.20;;;;;;;7.27;88.23;98487.78;5055506;28;45479;-82
2021/05/08 01:02:40;;;;;;;2.08;1.00;;;;;;;7.19;87.07;98492.88;5046468;28;45392;-82
2021/05/08 01:05:07;;;;;;;4.72;1.08;;;;;;;7.22;87.04;98490.78;5038609;28;45365;-82
2021/05/08 01:07:37;;;;;;;3.63;1.20;;;;;;;7.47;87.20;98498.47;5038626;28;46379;-81
2021/05/08 01:10:04;;;;;;;1.98;0.90;;;;;;;7.31;87.71;98497.13;5038437;28;45272;-81
2021/05/08 01:12:29;;;;;;;1.80;1.08;;;;;;;6.86;90.06;98500.84;5038791;28;45426;-81
2021/05/08 01:14:55;;;;;;;3.28;1.00;;;;;;;6.81;89.46;98492.44;5038344;28;45309;-81
2021/05/08 01:17:21;;;;;;;2.60;1.00;;;;;;;6.78;88.92;98492.69;5038031;28;45337;-81
2021/05/08 01:19:46;;;;;;;2.58;1.08;;;;;;;6.91;89.89;98482.78;5038356;28;45325;-81
2021/05/08 01:22:12;;;;;;;6.75;4.13;;;;;;;6.61;88.87;98486.13;5047095;28;45349;-81
2021/05/08 01:24:37;;;;;;;4.45;2.08;;;;;;;6.55;89.71;98490.09;5039187;28;45282;-81
2021/05/08 01:27:03;;;;;;;4.07;1.40;;;;;;;6.57;90.73;98489.03;5051768;28;45916;-81
2021/05/08 01:29:28;;;;;;;3.97;0.85;;;;;;;6.58;91.99;98479.28;5045061;28;45273;-81
2021/05/08 01:31:54;;;;;;;3.90;1.08;;;;;;;6.63;90.91;98481.56;5049954;28;45462;-81
2021/05/08 01:34:19;;;;;;;2.60;1.00;;;;;;;6.68;89.84;98471.44;5038641;28;45596;-81
2021/05/08 01:36:45;;;;;;;1.73;0.90;;;;;;;6.55;90.11;98471.59;5054782;28;47053;-81
2021/05/08 01:39:10;;;;;;;2.10;1.10;;;;;;;6.76;88.81;98468.19;5058132;28;45294;-81
2021/05/08 01:41:36;;;;;;;2.63;0.90;;;;;;;6.66;90.60;98471.59;5052845;28;45456;-81
2021/05/08 01:44:01;;;;;;;1.83;0.80;;;;;;;6.79;90.03;98476.69;5037871;28;45226;-82
2021/05/08 01:46:27;;;;;;;2.22;0.77;;;;;;;6.90;88.92;98480.25;5046974;28;46047;-82
2021/05/08 01:48:52;;;;;;;1.63;0.90;;;;;;;6.88;89.90;98483.03;5051160;28;45381;-82
2021/05/08 01:51:18;;;;;;;1.80;1.08;;;;;;;6.86;87.96;98482.31;5057544;28;45532;-82
2021/05/08 01:53:43;;;;;;;4.07;1.02;;;;;;;6.92;87.80;98479.16;5057933;28;45215;-82
2021/05/08 01:56:09;;;;;;;0.93;0.70;;;;;;;6.76;87.76;98474.31;5038502;28;45312;-81
2021/05/08 01:58:35;;;;;;;2.83;0.90;;;;;;;6.76;89.06;98470.84;5051863;28;45310;-82
2021/05/08 02:01:01;;;;;;;1.50;0.80;;;;;;;6.81;88.74;98468.66;5052721;28;45326;-82
2021/05/08 02:03:27;;;;;;;2.25;0.90;;;;;;;6.88;88.65;98471.59;5050062;28;45505;-82
2021/05/08 02:05:53;;;;;;;3.63;1.13;;;;;;;6.97;88.78;98476.97;5037872;28;45279;-82
2021/05/08 02:08:19;;;;;;;3.17;1.60;;;;;;;6.93;88.77;98485.28;5037429;28;45294;-81
2021/05/08 02:10:45;;;;;;;3.05;1.60;;;;;;;6.89;88.95;98489.16;5037699;28;45273;-82
2021/05/08 02:13:12;;;;;;;3.65;1.80;;;;;;;6.79;90.22;98491.72;5037730;28;45286;-82
2021/05/08 02:15:38;;;;;;;2.83;1.40;;;;;;;6.47;91.30;98489.88;5035888;28;47216;-81
2021/05/08 02:18:05;;;;;;;4.45;1.00;;;;;;;6.47;91.49;98495.16;5037505;28;45322;-81
2021/05/08 02:20:33;;;;;;;1.38;0.80;;;;;;;6.36;91.05;98490.75;5037720;28;45330;-83
2021/05/08 02:23:01;;;;;;;3.33;1.00;;;;;;;6.25;92.10;98491.63;5037627;28;45288;-83
2021/05/08 02:25:28;;;;;;;4.13;1.10;;;;;;;6.36;92.37;98490.75;5053860;28;47104;-82
2021/05/08 02:27:54;;;;;;;1.90;0.93;;;;;;;6.39;91.91;98477.31;5050511;28;45543;-82
2021/05/08 02:30:24;;;;;;;1.88;0.75;;;;;;;6.52;90.62;98474.50;5044940;28;45330;-83
2021/05/08 02:32:50;;;;;;;3.03;1.05;;;;;;;6.25;90.77;98458.13;5036999;28;45370;-82
2021/05/08 02:35:18;;;;;;;2.97;0.80;;;;;;;6.27;91.78;98445.66;5045392;28;47247;-81
2021/05/08 02:37:45;;;;;;;1.83;0.80;;;;;;;6.50;91.57;98457.94;5050693;28;45411;-82
2021/05/08 02:40:13;;;;;;;2.40;1.00;;;;;;;6.57;90.57;98467.88;5053258;28;45409;-82
2021/05/08 02:42:39;;;;;;;3.72;1.30;;;;;;;6.54;91.69;98464.63;5068637;28;47257;-82
2021/05/08 02:45:06;;;;;;;3.25;1.38;;;;;;;6.50;90.64;98466.72;5066757;28;46123;-81
2021/05/08 02:47:32;;;;;;;3.33;1.40;;;;;;;6.44;90.64;98454.00;5060626;28;45223;-81
2021/05/08 02:49:57;;;;;;;3.28;1.15;;;;;;;6.49;89.89;98461.53;5060941;28;45283;-81
2021/05/08 02:52:23;;;;;;;3.05;1.27;;;;;;;6.35;90.13;98446.81;5061031;28;45257;-81
2021/05/08 02:54:49;;;;;;;2.25;1.25;;;;;;;6.33;91.83;98439.00;5060713;28;46215;-80
2021/05/08 02:57:15;;;;;;;2.47;1.17;;;;;;;6.41;91.26;98439.22;5060772;28;45359;-81
2021/05/08 02:59:41;;;;;;;2.83;1.15;;;;;;;6.50;89.49;98431.50;5060975;28;45343;-81
2021/05/08 03:02:07;;;;;;;2.97;0.90;;;;;;;6.51;88.73;98426.13;5060706;28;45517;-82
2021/05/08 03:04:33;;;;;;;6.03;1.35;;;;;;;6.78;90.14;98423.97;5060875;28;45450;-82
2021/05/08 03:07:01;;;;;;;2.97;1.10;;;;;;;6.52;91.23;98432.22;5060618;28;45256;-81
2021/05/08 03:09:27;;;;;;;2.58;1.20;;;;;;;6.42;91.15;98414.47;5060549;28;45563;-81
2021/05/08 03:11:53;;;;;;;4.60;1.00;;;;;;;6.59;90.70;98420.19;5064745;28;45555;-82
2021/05/08 03:14:18;;;;;;;3.88;0.93;;;;;;;6.74;90.65;98422.53;5073640;28;45585;-82
2021/05/08 03:16:44;;;;;;;2.85;1.00;;;;;;;6.74;89.72;98425.19;5060379;28;45421;-82
2021/05/08 03:19:10;;;;;;;2.08;1.30;;;;;;;6.69;90.10;98430.84;5060417;28;45263;-82
2021/05/08 03:21:37;;;;;;;3.65;1.58;;;;;;;6.25;91.75;98418.50;5060618;28;45417;-82
2021/05/08 03:24:04;;;;;;;4.30;1.95;;;;;;;6.09;92.35;98410.13;5060089;28;46277;-82
2021/05/08 03:26:29;;;;;;;4.20;1.63;;;;;;;6.27;91.21;98421.88;5068029;28;45459;-82
2021/05/08 03:28:55;;;;;;;2.67;1.50;;;;;;;6.11;91.50;98416.13;5067070;27;45454;-81
2021/05/08 03:31:21;;;;;;;3.63;1.40;;;;;;;6.05;92.61;98417.47;5066743;28;45587;-82
2021/05/08 03:33:46;;;;;;;2.95;1.02;;;;;;;6.15;92.21;98414.91;5066818;28;45290;-82
2021/05/08 03:36:11;;;;;;;1.85;1.02;;;;;;;6.08;92.45;98419.00;5060060;28;45226;-82
2021/05/08 03:38:37;;;;;;;3.33;1.20;;;;;;;5.89;93.84;98414.34;5077165;28;45403;-83
2021/05/08 03:41:03;;;;;;;1.75;1.20;;;;;;;5.86;93.85;98418.06;5060020;28;45176;-83
2021/05/08 03:43:29;;;;;;;5.05;1.95;;;;;;;5.88;93.69;98420.59;5073505;28;45313;-81
2021/05/08 03:45:55;;;;;;;2.70;1.35;;;;;;;5.85;93.62;98424.31;5059795;28;45287;-82
2021/05/08 03:48:20;;;;;;;4.22;1.10;;;;;;;6.02;93.43;98428.28;5058663;28;45489;-82
2021/05/08 03:50:46;;;;;;;2.22;1.00;;;;;;;6.22;92.51;98429.31;5060068;28;45568;-82
2021/05/08 03:53:11;;;;;;;4.32;1.10;;;;;;;6.15;92.33;98424.66;5058574;28;45385;-82
2021/05/08 03:55:38;;;;;;;2.25;1.40;;;;;;;5.93;93.48;98426.34;5059839;28;45378;-83
2021/05/08 03:58:04;;;;;;;1.80;1.00;;;;;;;5.88;93.45;98417.97;5059765;28;45435;-81
2021/05/08 04:00:30;;;;;;;3.03;1.20;;;;;;;5.92;93.65;98412.28;5060003;28;45227;-81
2021/05/08 04:02:55;;;;;;;2.53;1.00;;;;;;;6.04;93.80;98402.59;5059366;28;45976;-82
2021/05/08 04:05:20;;;;;;;2.20;1.05;;;;;;;5.98;93.94;98406.53;5059737;28;45422;-81
2021/05/08 04:07:46;;;;;;;3.50;1.10;;;;;;;6.05;93.63;98408.69;5059666;28;45527;-81
2021/05/08 04:10:11;;;;;;;4.57;1.15;;;;;;;6.15;93.36;98396.44;5059707;28;45231;-82
2021/05/08 04:12:37;;;;;;;5.47;1.42;;;;;;;6.26;92.35;98390.28;5059381;28;46331;-82
2021/05/08 04:15:03;;;;;;;2.33;1.00;;;;;;;6.25;92.17;98380.69;5075063;28;45385;-81
2021/05/08 04:17:28;;;;;;;1.10;0.90;;;;;;;6.30;91.70;98378.50;5068947;28;45629;-82
2021/05/08 04:19:54;;;;;;;1.50;0.90;;;;;;;6.23;92.42;98375.53;5059752;28;45349;-82
2021/05/08 04:22:19;;;;;;;3.70;0.90;;;;;;;6.48;93.05;98383.22;5059354;28;45279;-81
2021/05/08 04:24:45;;;;;;;2.75;1.05;;;;;;;6.53;91.54;98405.69;5075704;27;45486;-81
2021/05/08 04:27:10;;;;;;;2.25;1.17;;;;;;;6.81;91.37;98423.72;5071911;28;45412;-82
2021/05/08 04:29:35;;;;;;;3.13;1.20;;;;;;;7.01;91.25;98429.94;5079405;27;45537;-83
2021/05/08 04:32:01;;;;;;;3.05;1.02;;;;;;;6.90;90.89;98417.66;5074381;28;48283;-83
2021/05/08 04:34:26;;;;;;;2.88;1.00;;;;;;;6.70;91.82;98412.22;5077976;28;45416;-82
2021/05/08 04:36:52;;;;;;;2.13;1.00;;;;;;;6.97;91.44;98429.38;5079633;27;45558;-81
2021/05/08 04:39:17;;;;;;;2.92;1.00;;;;;;;7.21;90.56;98428.28;5079205;28;45253;-82
2021/05/08 04:41:42;;;;;;;3.75;1.10;;;;;;;7.24;91.13;98428.03;5079041;28;45625;-82
2021/05/08 04:44:08;;;;;;;3.15;1.85;;;;;;;7.12;91.04;98437.00;5079010;28;45309;-82
2021/05/08 04:46:33;;;;;;;5.63;3.05;;;;;;;7.03;91.00;98438.59;5079258;27;45325;-83
2021/05/08 04:48:59;;;;;;;4.85;3.00;;;;;;;7.01;89.38;98430.81;5079132;28;45280;-83
2021/05/08 04:51:24;;;;;;;6.05;3.35;;;;;;;6.86;89.33;98437.38;5079062;27;45935;-83
2021/05/08 04:53:50;;;;;;;6.35;3.00;;;;;;;7.03;90.08;98438.59;5078812;28;45331;-82
2021/05/08 04:56:16;;;;;;;6.60;3.90;;;;;;;6.89;90.99;98437.13;5079335;27;45179;-82
2021/05/08 04:58:43;;;;;;;6.35;2.78;;;;;;;6.65;93.11;98438.19;5074285;28;45831;-82
2021/05/08 05:01:09;;;;;;;8.82;7.63;;;;;;;6.75;93.93;98438.25;5070779;28;45968;-82
2021/05/08 05:03:35;;;;;;;6.03;2.58;;;;;;;7.00;92.91;98429.13;5075283;27;45603;-81
2021/05/08 05:06:00;;;;;;;4.65;1.63;;;;;;;7.30;91.40;98434.59;5066702;28;45398;-81
2021/05/08 05:08:26;;;;;;;3.40;1.38;;;;;;;7.59;90.68;98432.13;5062280;28;45459;-82
2021/05/08 05:10:52;;;;;;;2.13;1.27;;;;;;;7.78;89.36;98438.47;5064651;28;45408;-82
2021/05/08 05:13:18;;;;;;;2.22;1.20;;;;;;;7.71;89.11;98439.97;5064064;27;45408;-81
2021/05/08 05:15:43;;;;;;;3.63;1.30;;;;;;;7.52;90.88;98446.84;5084739;27;45517;-82
2021/05/08 05:18:09;;;;;;;19.23;11.93;;;;;;;7.65;91.12;98441.31;5077626;27;45301;-83
2021/05/08 05:20:34;;;;;;;7.60;5.15;;;;;;;7.94;88.54;98448.53;5064670;28;45983;-82
2021/05/08 05:23:00;;;;;;;5.03;2.65;;;;;;;8.11;87.53;98449.69;5084682;27;45270;-80
2021/05/08 05:25:25;;;;;;;3.83;1.75;;;;;;;8.26;87.46;98444.88;5065530;27;45284;-79
2021/05/08 05:27:51;;;;;;;3.15;1.90;;;;;;;8.11;89.89;98446.22;5066902;27;45467;-79
2021/05/08 05:30:16;;;;;;;3.08;1.67;;;;;;;8.27;88.61;98449.19;5076932;27;45214;-79
2021/05/08 05:32:42;;;;;;;3.70;1.50;;;;;;;8.40;87.64;98451.59;5075714;27;45420;-79
2021/05/08 05:35:08;;;;;;;4.45;2.75;;;;;;;8.61;88.03;98448.84;5077775;27;45363;-79
2021/05/08 05:37:34;;;;;;;3.22;1.48;;;;;;;8.64;86.48;98454.84;5064232;27;45597;-81
2021/05/08 05:39:59;;;;;;;3.67;1.50;;;;;;;8.70;87.02;98449.84;5076424;27;45434;-80
2021/05/08 05:42:26;;;;;;;5.60;1.58;;;;;;;8.67;87.87;98459.88;5073039;28;45502;-80
2021/05/08 05:44:52;;;;;;;2.50;1.00;;;;;;;8.63;86.71;98459.31;5077056;28;45561;-82
2021/05/08 05:47:23;;;;;;;1.30;0.90;;;;;;;8.24;84.49;98453.91;5077295;27;45553;-83
2021/05/08 05:49:52;;;;;;;3.00;1.05;;;;;;;8.29;86.51;98449.91;5076016;28;46389;-80
2021/05/08 05:52:19;;;;;;;2.45;1.30;;;;;;;8.25;86.03;98452.94;5080052;27;45297;-80
2021/05/08 05:54:46;;;;;;;2.33;1.00;;;;;;;8.23;84.91;98453.09;5077386;27;45332;-80
2021/05/08 05:57:12;;;;;;;3.55;1.30;;;;;;;8.12;86.78;98443.44;5077659;27;45273;-81
2021/05/08 05:59:38;;;;;;;1.88;0.88;;;;;;;8.18;87.90;98450.84;5074692;28;45234;-83
2021/05/08 06:02:05;;;;;;;3.80;1.10;;;;;;;8.23;87.83;98454.88;5076831;27;45428;-82
2021/05/08 06:04:31;;;;;;;3.25;1.00;;;;;;;8.21;90.05;98444.44;5076262;28;45466;-82
2021/05/08 06:06:57;;;;;;;3.13;1.10;;;;;;;8.16;90.59;98452.78;5076234;27;45558;-84
2021/05/08 06:09:25;;;;;;;15.80;8.68;;;;;;;8.26;90.53;98452.81;5076567;28;46172;-82
2021/05/08 06:11:52;;;;;;;7.05;4.63;;;;;;;8.20;90.45;98449.84;5076556;27;45376;-81
2021/05/08 06:14:17;;;;;;;5.80;3.47;;;;;;;8.17;90.05;98453.63;5076929;27;45462;-79
2021/05/08 06:16:43;;;;;;;6.72;4.38;;;;;;;8.12;90.85;98456.69;5067715;27;45778;-83
2021/05/08 06:19:08;;;;;;;7.60;4.10;;;;;;;8.14;91.03;98459.19;5067376;28;48083;-83
2021/05/08 06:21:34;;;;;;;6.82;3.40;;;;;;;8.21;90.55;98459.47;5068836;28;45625;-82
2021/05/08 06:23:59;;;;;;;8.45;3.67;;;;;;;8.22;90.25;98456.72;5074439;28;45514;-81
2021/05/08 06:26:25;;;;;;;5.75;3.72;;;;;;;8.30;89.48;98477.22;5072649;28;45369;-81
2021/05/08 06:28:50;;;;;;;5.88;3.10;;;;;;;8.37;88.97;98474.88;5077048;28;46072;-81
2021/05/08 06:31:15;;;;;;;5.03;3.22;;;;;;;8.37;88.73;98480.16;5074734;28;45452;-80
2021/05/08 06:33:41;;;;;;;5.97;3.28;;;;;;;8.28;89.23;98492.41;5065153;27;45340;-81
2021/05/08 06:36:06;;;;;;;4.13;2.60;;;;;;;8.29;88.61;98489.63;5076152;28;45337;-79
2021/05/08 06:38:32;;;;;;;4.68;2.75;;;;;;;8.37;88.41;98488.94;5064741;27;45351;-82
2021/05/08 06:40:57;;;;;;;5.00;3.00;;;;;;;8.48;88.67;98485.34;5069005;28;45432;-82
2021/05/08 06:43:23;;;;;;;4.95;2.60;;;;;;;8.63;89.35;98493.78;5070626;28;45394;-81
2021/05/08 06:45:48;;;;;;;4.47;2.38;;;;;;;8.84;88.05;98490.16;5075988;28;45540;-81
2021/05/08 06:48:15;;;;;;;4.03;2.60;;;;;;;9.19;86.06;98492.25;5076055;28;46173;-81
2021/05/08 06:50:45;;;;;;;3.70;2.50;;;;;;;9.57;84.13;98491.47;5075295;27;45385;-84
2021/05/08 06:53:11;;;;;;;2.53;1.88;;;;;;;9.83;81.65;98483.72;5075547;27;45477;-83
2021/05/08 06:55:36;;;;;;;5.30;2.47;;;;;;;10.12;80.37;98482.75;5071464;28;45657;-84
2021/05/08 06:58:01;;;;;;;9.38;4.43;;;;;;;10.29;79.31;98488.28;5068738;28;45404;-81
2021/05/08 07:00:27;;;;;;;11.40;5.40;;;;;;;10.57;78.80;98493.59;5074670;28;45432;-82
2021/05/08 07:02:53;;;;;;;11.57;6.72;;;;;;;10.84;78.31;98490.06;5075521;27;45487;-83
2021/05/08 07:05:18;;;;;;;12.40;7.32;;;;;;;10.97;77.22;98486.19;5076067;28;45626;-81
2021/05/08 07:07:44;;;;;;;48.50;32.05;;;;;;;11.33;74.82;98481.66;5065714;27;45880;-83
2021/05/08 07:10:10;;;;;;;17.00;11.68;;;;;;;11.12;76.53;98478.50;5074964;27;45360;-82
2021/05/08 07:12:35;;;;;;;30.60;21.13;;;;;;;11.34;75.98;98479.81;5069838;27;45496;-81
2021/05/08 07:15:01;;;;;;;56.55;35.65;;;;;;;11.78;74.53;98478.91;5086699;27;45430;-80
2021/05/08 07:17:26;;;;;;;9.25;6.15;;;;;;;11.80;73.65;98476.94;5086223;27;46520;-82
2021/05/08 07:19:51;;;;;;;5.57;2.55;;;;;;;12.14;71.12;98483.28;5087094;27;45289;-82
2021/05/08 07:22:17;;;;;;;8.95;8.15;;;;;;;12.28;71.67;98481.84;5076346;27;46170;-81
2021/05/08 07:24:42;;;;;;;3.63;2.28;;;;;;;12.45;70.40;98474.75;5073393;27;45294;-81
2021/05/08 07:27:08;;;;;;;2.75;1.30;;;;;;;12.26;70.31;98485.50;5068964;28;45283;-80
2021/05/08 07:29:33;;;;;;;3.53;1.45;;;;;;;12.41;69.36;98484.88;5059094;28;45340;-80
2021/05/08 07:31:59;;;;;;;3.70;1.38;;;;;;;12.42;67.44;98489.22;5084085;27;45544;-80
2021/05/08 07:34:25;;;;;;;1.75;1.15;;;;;;;12.58;67.60;98492.94;5058933;28;45396;-81
2021/05/08 07:36:51;;;;;;;1.98;1.00;;;;;;;12.81;65.91;98493.16;5058955;28;45424;-82
2021/05/08 07:39:16;;;;;;;3.28;1.30;;;;;;;14.32;61.15;98485.63;5080257;27;45342;-80
2021/05/08 07:41:42;;;;;;;2.42;1.20;;;;;;;14.82;59.88;98480.84;5074947;27;45552;-81
2021/05/08 07:44:08;;;;;;;2.42;1.30;;;;;;;14.02;61.21;98488.06;5070190;27;45548;-82
2021/05/08 07:46:33;;;;;;;4.50;2.15;;;;;;;13.77;64.53;98490.00;5074705;27;45516;-81
2021/05/08 07:48:59;;;;;;;3.85;1.73;;;;;;;13.73;65.78;98507.38;5082763;27;45370;-81
2021/05/08 07:51:24;;;;;;;5.10;3.78;;;;;;;13.86;62.95;98488.97;5077017;27;45360;-80
2021/05/08 07:53:50;;;;;;;6.15;3.85;;;;;;;14.44;64.15;98499.44;5070684;28;45461;-80
2021/05/08 07:56:15;;;;;;;4.30;1.50;;;;;;;14.66;63.83;98494.31;5063086;28;45357;-80
2021/05/08 07:58:41;;;;;;;3.63;2.30;;;;;;;14.63;63.18;98481.28;5059338;28;45276;-82
2021/05/08 08:01:06;;;;;;;4.50;2.00;;;;;;;15.38;59.94;98485.09;5059111;28;45440;-80
2021/05/08 08:03:32;;;;;;;2.88;1.30;;;;;;;15.70;57.90;98484.97;5059329;28;45285;-81
2021/05/08 08:05:58;;;;;;;2.83;1.17;;;;;;;16.22;57.22;98485.91;5075490;27;45209;-81
2021/05/08 08:08:23;;;;;;;2.70;1.52;;;;;;;16.17;56.52;98485.66;5082176;27;45405;-80
2021/05/08 08:10:48;;;;;;;29.60;7.07;;;;;;;15.95;53.26;98488.25;5078982;27;45281;-83
2021/05/08 08:13:14;;;;;;;3.83;1.27;;;;;;;15.95;54.32;98485.56;5066843;27;45462;-83
2021/05/08 08:15:39;;;;;;;12.93;4.50;;;;;;;15.90;54.59;98477.25;5075064;28;47011;-82
2021/05/08 08:18:09;;;;;;;4.40;2.72;;;;;;;15.62;54.88;98472.50;5071386;28;45318;-84
2021/05/08 08:20:34;;;;;;;11.90;3.75;;;;;;;15.71;57.02;98486.63;5076438;28;45475;-79
2021/05/08 08:23:00;;;;;;;11.32;2.95;;;;;;;16.04;55.79;98481.78;5077432;28;45723;-87
2021/05/08 08:25:25;;;;;;;9.73;2.70;;;;;;;16.04;57.20;98481.78;5075785;27;45491;-79
2021/05/08 08:27:52;;;;;;;4.95;1.30;;;;;;;16.46;51.74;98479.41;5077820;28;45290;-79
2021/05/08 08:30:18;;;;;;;3.60;1.20;;;;;;;16.97;54.91;98471.47;5077260;27;45354;-79
2021/05/08 08:32:43;;;;;;;3.17;1.20;;;;;;;17.77;50.54;98464.06;5058781;28;45521;-79
2021/05/08 08:35:09;;;;;;;1.95;1.20;;;;;;;17.64;50.32;98458.59;5069159;28;47405;-79
2021/05/08 08:37:35;;;;;;;7.97;3.22;;;;;;;18.95;47.46;98453.34;5068960;28;45408;-79
2021/05/08 08:40:01;;;;;;;2.70;1.20;;;;;;;19.24;47.33;98457.56;5066244;28;45287;-79
2021/05/08 08:42:27;;;;;;;3.72;1.17;;;;;;;19.42;48.38;98456.09;5069329;28;45331;-79
2021/05/08 08:44:52;;;;;;;1.90;1.17;;;;;;;18.89;46.73;98457.69;5063622;27;46184;-80
2021/05/08 08:47:29;;;;;;;13.77;3.60;;;;;;;19.00;44.67;98456.28;5074630;28;45387;-79
2021/05/08 08:49:57;;;;;;;1.98;0.98;;;;;;;19.49;40.55;98448.84;5075491;28;45426;-80
2021/05/08 08:52:22;;;;;;;1.80;1.00;;;;;;;22.20;36.50;98444.25;5078304;27;45822;-81
2021/05/08 08:54:48;;;;;;;17.15;4.55;;;;;;;22.30;39.29;98449.13;5077996;28;46512;-80
2021/05/08 08:57:14;;;;;;;3.50;1.00;;;;;;;21.42;37.66;98450.03;5078342;28;45220;-80
2021/05/08 08:59:42;;;;;;;3.30;1.75;;;;;;;21.75;35.70;98439.13;5078262;27;45380;-79
2021/05/08 09:02:08;;;;;;;2.63;1.10;;;;;;;22.46;40.37;98442.28;5072329;27;45357;-79
2021/05/08 09:04:33;;;;;;;2.30;0.88;;;;;;;23.40;37.87;98445.50;5078117;28;45463;-80
2021/05/08 09:07:00;;;;;;;3.20;0.90;;;;;;;24.71;33.46;98448.81;5073494;28;45327;-82
2021/05/08 09:09:25;;;;;;;1.65;0.85;;;;;;;24.93;34.44;98439.97;5074521;28;45471;-82
2021/05/08 09:11:55;;;;;;;3.85;1.27;;;;;;;24.86;33.48;98431.16;5073719;27;45506;-82
2021/05/08 09:14:23;;;;;;;2.03;0.83;;;;;;;24.56;32.83;98432.22;5071324;28;45559;-81
2021/05/08 09:17:08;;;;;;;1.65;0.70;;;;;;;25.33;34.11;98424.56;5073055;28;45347;-81
2021/05/08 09:19:52;;;;;;;3.80;0.80;;;;;;;25.29;33.09;98415.25;5077139;28;45550;-80
2021/05/08 09:22:28;;;;;;;1.70;0.90;;;;;;;25.14;31.62;98411.22;5075494;28;45541;-83
2021/05/08 09:25:01;;;;;;;1.92;0.73;;;;;;;25.33;33.10;98406.34;5072205;28;45553;-81
2021/05/08 09:27:40;;;;;;;2.50;0.60;;;;;;;25.26;31.85;98400.28;5075624;28;46090;-81
2021/05/08 09:30:20;;;;;;;1.73;0.90;;;;;;;25.33;33.18;98403.63;5078001;28;45352;-81
2021/05/08 09:32:54;;;;;;;2.30;0.70;;;;;;;25.48;34.32;98394.88;5076349;28;45456;-80
2021/05/08 09:35:22;;;;;;;4.97;1.00;;;;;;;24.71;33.80;98397.16;5075956;28;47111;-80
2021/05/08 09:37:49;;;;;;;4.38;1.15;;;;;;;24.65;35.52;98384.53;5077821;27;45400;-82
2021/05/08 09:40:17;;;;;;;2.88;0.70;;;;;;;24.31;36.60;98388.00;5077804;27;45341;-82
2021/05/08 09:42:57;;;;;;;1.73;0.88;;;;;;;24.30;31.84;98386.34;5077579;27;45198;-81
2021/05/08 09:45:24;;;;;;;1.27;0.70;;;;;;;22.99;33.79;98381.03;5077070;27;45459;-81
2021/05/08 09:47:51;;;;;;;1.92;0.75;;;;;;;22.44;36.59;98380.16;5077549;27;45341;-81
2021/05/08 09:50:25;;;;;;;2.33;0.60;;;;;;;22.27;37.97;98373.75;5075822;27;45346;-81
2021/05/08 09:52:55;;;;;;;1.48;0.60;;;;;;;21.90;37.85;98373.81;5076268;28;45343;-82
2021/05/08 09:55:23;;;;;;;1.58;0.52;;;;;;;21.89;34.60;98364.84;5077485;27;45997;-83
2021/05/08 09:58:19;;;;;;;0.93;0.57;;;;;;;21.75;32.87;98371.47;5077292;27;45416;-81
2021/05/08 10:00:45;;;;;;;1.67;0.70;;;;;;;21.09;37.08;98361.09;5075353;28;45363;-83
2021/05/08 10:03:13;;;;;;;2.15;0.60;;;;;;;20.96;37.70;98353.91;5074476;27;45447;-80
2021/05/08 10:05:46;;;;;;;1.08;0.60;;;;;;;21.22;38.36;98362.88;5070426;28;45303;-81
2021/05/08 10:08:12;;;;;;;1.77;0.90;;;;;;;20.53;41.95;98350.91;5062300;28;45419;-81
2021/05/08 10:10:37;;;;;;;2.35;0.80;;;;;;;20.57;39.61;98351.28;5063137;27;45472;-78
2021/05/08 10:13:08;;;;;;;1.95;0.88;;;;;;;21.22;39.29;98352.84;5066799;28;45498;-78
2021/05/08 10:15:36;;;;;;;1.70;0.90;;;;;;;20.99;41.19;98356.19;5064373;27;45408;-78
2021/05/08 10:18:04;;;;;;;4.70;1.17;;;;;;;21.10;44.47;98350.03;5070723;27;45235;-82
2021/05/08 10:20:30;;;;;;;1.75;0.68;;;;;;;21.12;38.47;98344.44;5069198;28;45578;-83
2021/05/08 10:22:59;;;;;;;4.10;1.15;;;;;;;20.99;37.08;98337.25;5077162;27;45456;-77
2021/05/08 10:25:27;;;;;;;1.50;0.73;;;;;;;21.71;42.38;98334.06;5074511;28;48148;-80
2021/05/08 10:27:53;;;;;;;2.60;0.95;;;;;;;22.24;38.70;98320.03;5067170;28;45225;-81
2021/05/08 10:30:31;;;;;;;1.58;1.00;;;;;;;22.33;40.81;98326.78;5056885;28;45280;-82
2021/05/08 10:32:57;;;;;;;1.92;0.88;;;;;;;22.21;37.18;98331.34;5057046;28;45359;-83
2021/05/08 10:35:36;;;;;;;1.58;0.77;;;;;;;22.13;36.25;98319.78;5056697;28;45463;-81
2021/05/08 10:38:24;;;;;;;2.15;0.90;;;;;;;21.68;36.26;98310.16;5056964;28;45455;-80
2021/05/08 10:41:03;;;;;;;1.90;0.80;;;;;;;22.35;36.46;98304.91;5077137;27;45443;-82
2021/05/08 10:43:54;;;;;;;2.95;0.90;;;;;;;22.37;37.82;98300.88;5073409;27;45341;-81
2021/05/08 10:46:27;;;;;;;1.70;0.70;;;;;;;22.57;35.69;98299.81;5056320;28;46174;-80
2021/05/08 10:49:12;;;;;;;1.80;0.90;;;;;;;22.44;35.65;98296.19;5057083;28;45447;-80
2021/05/08 10:51:53;;;;;;;2.58;0.82;;;;;;;22.22;37.74;98298.63;5056824;28;45251;-82
2021/05/08 10:54:36;;;;;;;2.78;0.90;;;;;;;22.19;38.64;98290.13;5056760;28;45344;-82
2021/05/08 10:57:25;;;;;;;0.90;0.52;;;;;;;21.81;36.30;98286.69;5056554;28;46258;-83
2021/05/08 11:00:00;;;;;;;1.48;0.80;;;;;;;21.56;38.58;98280.28;5075934;27;45427;-84
2021/05/08 11:02:43;;;;;;;2.55;0.80;;;;;;;21.69;34.39;98287.47;5073941;27;45412;-82
2021/05/08 11:05:27;;;;;;;3.67;1.00;;;;;;;21.70;36.76;98278.28;5077505;28;45514;-81
2021/05/08 11:07:53;;;;;;;1.50;0.75;;;;;;;21.40;34.32;98267.38;5075760;28;45328;-80
2021/05/08 11:10:34;;;;;;;2.63;0.75;;;;;;;21.85;35.26;98268.94;5072226;28;45949;-81
2021/05/08 11:13:09;;;;;;;;;;;;;;;22.20;37.87;98264.69;5079951;27;45676;-82
2021/05/08 11:16:03;;;;;;;2.25;0.93;;;;;;;21.83;35.33;98255.66;5079989;27;45380;-83
2021/05/08 11:18:32;;;;;;;3.55;0.80;;;;;;;22.03;40.54;98257.25;5070182;28;45419;-83
2021/05/08 11:20:58;;;;;;;1.65;0.93;;;;;;;21.99;37.21;98254.16;5078951;28;45313;-81
2021/05/08 11:23:24;;;;;;;3.08;0.90;;;;;;;21.48;34.67;98247.34;5069889;27;45483;-80
2021/05/08 11:25:49;;;;;;;2.40;1.10;;;;;;;21.47;38.15;98254.59;5068605;28;45348;-80
2021/05/08 11:28:15;;;;;;;3.67;0.90;;;;;;;21.22;43.48;98244.72;5069225;28;45214;-80
2021/05/08 11:30:56;;;;;;;1.55;0.95;;;;;;;21.28;38.28;98251.91;5066481;28;45282;-80
2021/05/08 11:33:22;;;;;;;3.22;0.90;;;;;;;21.55;37.57;98250.78;5078813;28;45486;-79
2021/05/08 11:36:08;;;;;;;2.47;0.98;;;;;;;21.83;34.72;98243.97;5070515;28;45906;-79
2021/05/08 11:38:34;;;;;;;1.40;0.80;;;;;;;21.69;34.41;98240.66;5073683;28;47020;-81
2021/05/08 11:41:18;;;;;;;1.55;0.60;;;;;;;21.70;38.40;98235.00;5072654;28;45192;-81